x

Cape Cleare - 17 Nm South Of Montague Is, Ak (46076) Wave Buoy

6:50am - Mon 26th Sep 2016 All times are AKDT. -8 hours from GMT.

  • Sig Wave height 3.6ft
  • Swell Direction
  • Peak Period 17s
  • Average Period 6s
  • Wind
    9mph, 11mph gusts
  • Sea Temp 52°f
  • Air Temp 48°f
  • Sea Pressure 1009.8mb
  • Cape Cleare - 17 Nm South Of Montague Is,  Ak
  • Cape Cleare - 17 Nm South Of Montague Is,  Ak

More Historic Weather Station data

Upgrade to MSW Pro to gain access to the past 30 days of data for over 8000 Wavebouys and Weather Stations around the globe.

Join Pro

Comparision Forecast

View Surf forecast
   
Mon 09/26 6:50am 3.5ft 17s 6s 9 11 mph 1009.8mb 52f 48f
5:50am 3.5ft 17s 7s 9 11 mph 1009.9mb 52f 48f
4:50am 4ft 16s 6s 9 11 mph 1009.7mb 53f 49f
3:50am 4ft 16s 6s 4 7 mph 1009.7mb 53f 49f
2:50am 4ft 17s 6s 7 11 mph 1009.8mb 54f 49f
1:50am 4.5ft 19s 6s 9 13 mph 1009.8mb 53f 49f
12:50am 4.5ft 17s 7s 11 13 mph 1009.8mb 53f 49f
Sun 09/25 11:50pm 4.5ft 17s 7s 4 7 mph 1010.1mb 53f 50f
10:50pm 4.5ft 17s 7s 7
mph
1010.1mb 53f 50f
9:50pm 4.5ft 17s 7s 4 7 mph 1010.3mb 53f 50f
8:50pm 4ft 17s 7s  -  2 mph 1010.2mb 54f 50f
7:50pm 4ft 17s 7s 2 4 mph 1010.2mb 54f 50f
6:50pm 4ft 17s 7s 4
mph
1010.5mb 54f 50f
5:50pm 4ft 9s 7s 7
mph
1010.9mb 54f 49f
4:50pm 4ft 8s 7s 4 7 mph 1011.1mb 54f 50f
3:50pm 4.5ft 9s 7s 7 9 mph 1011mb 54f 51f
2:50pm 4ft 10s 7s 7 11 mph 1011.4mb 54f 51f
1:50pm 4.5ft 9s 7s 9 11 mph 1011.5mb 54f 51f
12:50pm 4.5ft 9s 7s 9
mph
1011.5mb 54f 51f
10:50am 4.5ft 9s 7s 7 9 mph 1011.2mb 54f 50f
9:50am 4.5ft 9s 7s 7 9 mph 1010.9mb 53f 50f
8:50am 4.5ft 9s 7s 4 7 mph 1010.7mb 53f 49f
7:50am 4.5ft 8s 6s 2
mph
1010.5mb 52f 49f
6:50am 5ft 9s 7s 2 4 mph 1010.6mb 53f 48f
4:50am 4.5ft 8s 6s 2 7 mph - 55f 51f
3:50am 4.5ft 9s 7s 16 18 mph 1009.9mb 54f 51f
2:50am 5ft 9s 7s 13 16 mph 1009.7mb 54f 52f
1:50am 4.5ft 10s 7s 13 18 mph 1009.4mb 55f 52f
12:50am 4.5ft 10s 7s 13 16 mph 1009.3mb 55f 52f
Sat 09/24 11:50pm 5ft 10s 7s 9 13 mph 1009.2mb 55f 52f
10:50pm 5ft 10s 7s 7 9 mph 1008.9mb 54f 51f
9:50pm 5ft 10s 7s 9 11 mph 1008.8mb 54f 51f
8:50pm 5ft 9s 7s 9 11 mph 1008.4mb 54f 51f
7:50pm 5ft 10s 7s 4 7 mph 1008.3mb 54f 50f
6:50pm 5ft 9s 7s 2 4 mph 1008.1mb 54f 51f
5:50pm 5ft 10s 7s 4 7 mph 1008mb 55f 50f
4:50pm 5.5ft 10s 7s 9 11 mph 1007.9mb 54f 49f
3:50pm 5ft 9s 7s 4 7 mph 1008.2mb 54f 49f
2:50pm 5ft 10s 7s 7
mph
1008.2mb 54f 48f
1:50pm 5ft 9s 7s 7
mph
1008.1mb 55f 49f
12:50pm 5.5ft 9s 7s 7
mph
1007.6mb 53f 50f
11:50am 6ft 10s 7s 11
mph
1007.3mb 53f 49f
10:50am 6ft 11s 7s 4
mph
1006.9mb 53f 52f
9:50am 6ft 11s 7s 2 4 mph 1006.5mb 53f 51f
8:50am 6ft 9s 7s 4 7 mph 1006.2mb 52f 51f
7:50am 6ft 9s 7s 7
mph
1005.9mb 53f 52f
6:50am 6ft 10s 7s 9 11 mph 1005.5mb 53f 52f
5:50am 6ft 10s 7s 9 11 mph 1005.3mb 54f 52f
4:50am 6ft 10s 8s 9 11 mph 1005.1mb 54f 52f
3:50am 6ft 11s 8s 2 4 mph 1005mb 54f 51f
2:50am 6.5ft 9s 8s 7 9 mph 1004.9mb 55f 52f
1:50am 6.5ft 9s 8s 4 9 mph 1004.9mb 55f 52f
12:50am 7ft 11s 8s 11 13 mph 1004.7mb 53f 51f
Fri 09/23 11:50pm 7ft 10s 7s 4 7 mph 1004.5mb 53f 50f
10:50pm 8ft 11s 8s 11 13 mph 1003.8mb 54f 52f
9:50pm 8ft 11s 8s 9 11 mph 1003.5mb 54f 52f
8:50pm 8ft 9s 8s 7 9 mph 1003.2mb 54f 52f
7:50pm 7ft 8s 7s 9 11 mph 1002.6mb 54f 52f
6:50pm 7ft 10s 8s 9 11 mph 1002.3mb 53f 52f
5:50pm 7.5ft 9s 8s 11 13 mph 1002.2mb 52f 52f
4:50pm 7ft 10s 7s 11 13 mph 1002mb 52f 53f
3:50pm 7.5ft 10s 8s 11 13 mph 1001.8mb 54f 53f
2:50pm 8ft 10s 8s 11 13 mph 1001.4mb 55f 53f
1:50pm 7.5ft 10s 8s 11 13 mph 1001mb 55f 53f
12:50pm 9.5ft 10s 8s 9 11 mph 1000.3mb 53f 53f
11:50am 9ft 11s 8s 9 11 mph 999.8mb 54f 53f
9:50am 10ft 11s 8s 9 11 mph 998.5mb 53f 53f
8:50am 9ft 11s 8s 9 13 mph 997.7mb 53f 53f
7:50am 8ft 11s 7s 11 13 mph 996.8mb 53f 52f
6:50am 9ft 11s 7s 13 16 mph 996.2mb 53f 52f
4:50am 9ft 10s 7s 16 18 mph 995.5mb 53f 52f
3:50am 10ft 11s 8s 18 20 mph 995.2mb 54f 52f
2:50am 10ft 11s 8s 16 20 mph 995.2mb 55f 53f
1:50am 12ft 11s 9s 16 22 mph 995mb 55f 52f
12:50am 11ft 11s 8s 16 20 mph 994.5mb 55f 53f
Thu 09/22 11:50pm 11.5ft 11s 9s 16 22 mph 993.9mb 55f 53f
10:50pm 12.5ft 11s 9s 16 20 mph 993.4mb 55f 53f
9:50pm 11.5ft 11s 8s 16 20 mph 992.8mb 55f 53f
8:50pm 11ft 12s 8s 4 9 mph 992.4mb 55f 51f
7:50pm 12ft 11s 8s 13 18 mph 991.7mb 55f 53f
6:50pm 11.5ft 11s 8s 18 20 mph 990.9mb 53f 53f
5:50pm 12ft 11s 8s 18 20 mph 990.4mb 54f 53f
4:50pm 11.5ft 11s 8s 18 22 mph 989.9mb 54f 53f